createdAt,value
2023-05-06T00:00:16.276Z,52
2023-05-06T00:05:14.509Z,53
2023-05-06T00:10:17.548Z,53
2023-05-06T00:15:20.499Z,53
2023-05-06T00:20:18.898Z,53
2023-05-06T00:25:20.226Z,53
2023-05-06T00:30:14.320Z,53
2023-05-06T00:35:17.091Z,53
2023-05-06T00:40:22.304Z,53
2023-05-06T00:45:18.560Z,53
2023-05-06T00:50:22.736Z,53
2023-05-06T00:55:16.810Z,53
2023-05-06T01:00:14.185Z,52
2023-05-06T01:05:14.704Z,53
2023-05-06T01:10:23.983Z,53
2023-05-06T01:15:14.294Z,53
2023-05-06T01:20:14.396Z,53
2023-05-06T01:25:16.426Z,52
2023-05-06T01:30:18.521Z,52
2023-05-06T01:35:20.862Z,53
2023-05-06T01:40:20.321Z,53
2023-05-06T01:45:24.668Z,52
2023-05-06T01:50:24.741Z,53
2023-05-06T01:55:16.999Z,53
2023-05-06T02:00:18.492Z,53
2023-05-06T02:05:18.578Z,53
2023-05-06T02:10:19.037Z,53
2023-05-06T02:15:16.452Z,53
2023-05-06T02:20:24.809Z,53
2023-05-06T02:25:16.311Z,53
2023-05-06T02:30:16.556Z,53
2023-05-06T02:35:18.903Z,53
2023-05-06T02:40:20.265Z,53
2023-05-06T02:45:16.490Z,53
2023-05-06T02:50:14.828Z,53
2023-05-06T02:55:20.280Z,53
2023-05-06T03:00:18.583Z,52
2023-05-06T03:05:14.969Z,53
2023-05-06T03:10:16.297Z,53
2023-05-06T03:15:14.731Z,53
2023-05-06T03:20:16.248Z,53
2023-05-06T03:25:20.560Z,53
2023-05-06T03:30:16.786Z,53
2023-05-06T03:35:16.281Z,52
2023-05-06T03:40:16.621Z,53
2023-05-06T03:45:14.902Z,53
2023-05-06T03:50:16.703Z,53
2023-05-06T03:55:21.113Z,53
2023-05-06T04:00:14.488Z,52
2023-05-06T04:05:20.532Z,53
2023-05-06T04:10:18.606Z,53
2023-05-06T04:15:15.100Z,52
2023-05-06T04:20:18.486Z,53
2023-05-06T04:25:17.073Z,53
2023-05-06T04:30:14.522Z,53
2023-05-06T04:35:19.079Z,53
2023-05-06T04:40:18.479Z,53
2023-05-06T04:45:19.014Z,52
2023-05-06T04:50:16.796Z,53
2023-05-06T04:55:20.862Z,53
2023-05-06T05:00:18.764Z,53
2023-05-06T05:05:18.936Z,53
2023-05-06T05:10:15.172Z,52
2023-05-06T05:15:20.476Z,53
2023-05-06T05:20:16.745Z,53
2023-05-06T05:25:23.967Z,53
2023-05-06T05:30:18.512Z,53
2023-05-06T05:35:21.143Z,53
2023-05-06T05:40:20.986Z,52
2023-05-06T05:45:14.486Z,53
2023-05-06T05:50:17.024Z,53
2023-05-06T05:55:16.899Z,53
2023-05-06T06:00:16.305Z,53
2023-05-06T06:05:28.776Z,53
2023-05-06T06:10:15.116Z,53
2023-05-06T06:15:20.547Z,52
2023-05-06T06:20:19.190Z,52
2023-05-06T06:25:14.561Z,54
2023-05-06T06:30:26.568Z,54
2023-05-06T06:35:24.654Z,56
2023-05-06T06:40:15.099Z,56
2023-05-06T06:45:16.523Z,57
2023-05-06T06:50:18.869Z,59
2023-05-06T06:55:16.499Z,58
2023-05-06T07:00:18.651Z,58
2023-05-06T07:05:16.909Z,58
2023-05-06T07:10:18.414Z,57
2023-05-06T07:15:19.374Z,57
2023-05-06T07:20:22.667Z,56
2023-05-06T07:25:16.871Z,56
2023-05-06T07:30:16.815Z,56
2023-05-06T07:35:16.400Z,57
2023-05-06T07:40:25.570Z,56
2023-05-06T07:45:16.985Z,56
2023-05-06T07:50:16.595Z,56
2023-05-06T07:55:16.722Z,56
2023-05-06T08:00:14.916Z,56
2023-05-06T08:05:16.897Z,56
2023-05-06T08:10:22.625Z,56
2023-05-06T08:15:21.515Z,55
2023-05-06T08:20:19.407Z,55
2023-05-06T08:25:18.618Z,55
2023-05-06T08:30:16.935Z,56
2023-05-06T08:35:16.467Z,55
2023-05-06T08:40:16.949Z,56
2023-05-06T08:45:18.470Z,57
2023-05-06T08:50:23.053Z,57
2023-05-06T08:55:18.526Z,57
2023-05-06T09:00:18.899Z,58
2023-05-06T09:05:16.589Z,57
2023-05-06T09:10:19.297Z,57
2023-05-06T09:15:16.895Z,59
2023-05-06T09:20:16.506Z,59
2023-05-06T09:25:19.032Z,60
2023-05-06T09:30:16.596Z,59
2023-05-06T09:35:16.876Z,59
2023-05-06T09:40:16.586Z,58
2023-05-06T09:45:16.805Z,58
2023-05-06T09:50:24.878Z,58
2023-05-06T09:55:14.493Z,59
2023-05-06T10:00:22.899Z,57
2023-05-06T10:05:16.823Z,58
2023-05-06T10:10:18.798Z,58
2023-05-06T10:15:16.067Z,58
2023-05-06T10:20:23.506Z,57
2023-05-06T10:25:17.696Z,57
2023-05-06T10:30:19.932Z,56
2023-05-06T10:35:17.528Z,57
2023-05-06T10:40:21.107Z,56
2023-05-06T10:45:23.160Z,55
2023-05-06T10:50:16.745Z,56
2023-05-06T10:55:18.801Z,55
2023-05-06T11:00:17.168Z,56
2023-05-06T11:05:20.806Z,57
2023-05-06T11:10:19.031Z,56
2023-05-06T11:15:16.808Z,56
2023-05-06T11:20:14.696Z,56
2023-05-06T11:25:21.076Z,57
2023-05-06T11:30:20.697Z,57
2023-05-06T11:35:18.876Z,57
2023-05-06T11:40:20.703Z,56
2023-05-06T11:45:14.785Z,56
2023-05-06T11:50:15.541Z,56
2023-05-06T11:55:20.803Z,56
2023-05-06T12:00:17.748Z,56
2023-05-06T12:05:14.609Z,56
2023-05-06T12:10:16.947Z,55
2023-05-06T12:15:18.629Z,56
2023-05-06T12:20:17.282Z,56
2023-05-06T12:25:14.701Z,56
2023-05-06T12:30:17.133Z,55
2023-05-06T12:35:16.590Z,55
2023-05-06T12:40:19.075Z,55
2023-05-06T12:45:16.620Z,55
2023-05-06T12:50:14.908Z,53
2023-05-06T12:55:17.228Z,55
2023-05-06T13:00:20.986Z,55
2023-05-06T13:05:17.424Z,54
2023-05-06T13:10:15.615Z,53
2023-05-06T13:15:19.175Z,54
2023-05-06T13:20:18.758Z,54
2023-05-06T13:25:21.494Z,54
2023-05-06T13:30:16.955Z,54
2023-05-06T13:35:20.752Z,53
2023-05-06T13:40:17.215Z,54
2023-05-06T13:45:14.787Z,54
2023-05-06T13:50:23.191Z,54
2023-05-06T13:55:20.781Z,54
2023-05-06T14:00:21.505Z,54
2023-05-06T14:05:19.797Z,54
2023-05-06T14:10:14.772Z,55
2023-05-06T14:15:17.126Z,55
2023-05-06T14:20:18.844Z,55
2023-05-06T14:25:19.302Z,55
2023-05-06T14:30:23.055Z,55
2023-05-06T14:35:14.680Z,55
2023-05-06T14:40:19.233Z,55
2023-05-06T14:45:18.817Z,55
2023-05-06T14:50:16.362Z,54
2023-05-06T14:55:16.909Z,55
2023-05-06T15:00:14.542Z,54
2023-05-06T15:05:16.277Z,55
2023-05-06T15:10:17.223Z,54
2023-05-06T15:15:16.856Z,54
2023-05-06T15:20:20.611Z,55
2023-05-06T15:25:35.884Z,55
2023-05-06T15:30:22.114Z,55
2023-05-06T15:35:14.594Z,54
2023-05-06T15:40:24.101Z,54
2023-05-06T15:45:14.808Z,54
2023-05-06T15:55:17.131Z,53
2023-05-06T16:00:15.119Z,55
2023-05-06T16:05:18.907Z,55
2023-05-06T16:10:14.848Z,54
2023-05-06T16:15:29.312Z,54
2023-05-06T16:20:18.892Z,56
2023-05-06T16:25:16.784Z,57
2023-05-06T16:30:17.402Z,56
2023-05-06T16:35:20.903Z,56
2023-05-06T16:40:14.394Z,54
2023-05-06T16:45:15.210Z,54
2023-05-06T16:50:20.835Z,54
2023-05-06T16:55:16.318Z,54
2023-05-06T17:00:19.023Z,54
2023-05-06T17:05:21.418Z,52
2023-05-06T17:10:24.759Z,52
2023-05-06T17:15:21.457Z,54
2023-05-06T17:20:19.149Z,53
2023-05-06T17:25:14.911Z,54
2023-05-06T17:30:18.620Z,55
2023-05-06T17:35:21.132Z,55
2023-05-06T17:40:21.429Z,55
2023-05-06T17:45:17.014Z,55
2023-05-06T17:50:14.609Z,55
2023-05-06T17:55:37.520Z,55
2023-05-06T18:00:21.052Z,56
2023-05-06T18:05:18.851Z,56
2023-05-06T18:10:14.380Z,56
2023-05-06T18:15:18.975Z,56
2023-05-06T18:20:17.190Z,56
2023-05-06T18:25:14.872Z,57
2023-05-06T18:30:16.763Z,56
2023-05-06T18:35:21.107Z,57
2023-05-06T18:40:17.389Z,56
2023-05-06T18:45:21.097Z,56
2023-05-06T18:50:16.731Z,55
2023-05-06T18:55:21.293Z,55
2023-05-06T19:00:19.206Z,55
2023-05-06T19:05:17.010Z,54
2023-05-06T19:10:18.923Z,54
2023-05-06T19:15:20.581Z,54
2023-05-06T19:20:15.089Z,53
2023-05-06T19:25:20.927Z,53
2023-05-06T19:30:16.769Z,52
2023-05-06T19:35:19.147Z,52
2023-05-06T19:40:18.920Z,51
2023-05-06T19:45:19.562Z,52
2023-05-06T19:50:19.295Z,52
2023-05-06T19:55:19.128Z,52
2023-05-06T20:00:22.903Z,52
2023-05-06T20:05:16.649Z,52
2023-05-06T20:10:19.093Z,52
2023-05-06T20:15:16.994Z,52
2023-05-06T20:20:20.345Z,52
2023-05-06T20:25:19.101Z,51
2023-05-06T20:30:21.386Z,52
2023-05-06T20:35:21.193Z,51
2023-05-06T20:40:20.997Z,53
2023-05-06T20:45:18.675Z,53
2023-05-06T20:50:15.287Z,53
2023-05-06T20:55:17.197Z,53
2023-05-06T21:00:27.204Z,52
2023-05-06T21:05:21.145Z,53
2023-05-06T21:10:15.206Z,53
2023-05-06T21:15:19.298Z,53
2023-05-06T21:20:17.639Z,53
2023-05-06T21:25:17.105Z,53
2023-05-06T21:30:18.554Z,53
2023-05-06T21:35:23.219Z,54
2023-05-06T21:40:19.105Z,54
2023-05-06T21:45:18.660Z,54
2023-05-06T21:50:17.347Z,54
2023-05-06T21:55:19.052Z,53
2023-05-06T22:00:19.120Z,54
2023-05-06T22:05:15.232Z,54
2023-05-06T22:10:15.075Z,54
2023-05-06T22:15:16.697Z,54
2023-05-06T22:20:15.739Z,54
2023-05-06T22:25:17.315Z,54
2023-05-06T22:30:19.286Z,52
2023-05-06T22:35:23.183Z,54
2023-05-06T22:40:23.421Z,54
2023-05-06T22:45:21.099Z,54
2023-05-06T22:50:20.787Z,54
2023-05-06T22:55:17.181Z,52
2023-05-06T23:00:14.719Z,54
2023-05-06T23:05:15.529Z,53
2023-05-06T23:10:15.184Z,54
2023-05-06T23:15:26.700Z,54
2023-05-06T23:20:15.397Z,54
2023-05-06T23:25:19.492Z,54
2023-05-06T23:30:21.279Z,53
2023-05-06T23:35:14.945Z,52
2023-05-06T23:40:14.475Z,53
2023-05-06T23:45:21.599Z,53
2023-05-06T23:50:17.306Z,54
2023-05-06T23:55:17.116Z,54
